Time;durP1;ratioP1;P1;durP2;ratioP2;P2;SDS_P1;SDS_P2;PMS_P1;PMS_P2;Temp;Humidity;BMP_temperature;BMP_pressure;BME280_temperature;BME280_humidity;BME280_pressure;Samples;Min_cycle;Max_cycle;Signal;HPM_P1;HPM_P2
2023/02/09 00:01:22;;;;;;;4.73;2.27;;;;;;;-3.67;92.25;102038.94;5040308;28;20447;-55
2023/02/09 00:03:50;;;;;;;1.93;1.93;;;;;;;-3.66;91.81;102038.13;5019990;28;20448;-55
2023/02/09 00:06:20;;;;;;;0.30;0.23;;;;;;;-3.66;92.00;102035.53;5045086;28;20530;-55
2023/02/09 00:08:47;;;;;;;4.23;1.17;;;;;;;-3.83;92.19;102040.59;5026245;28;20862;-55
2023/02/09 00:11:18;;;;;;;2.60;2.40;;;;;;;-3.99;92.84;102031.88;5038448;28;20512;-55
2023/02/09 00:13:45;;;;;;;2.07;1.27;;;;;;;-3.85;92.44;102034.38;5039917;28;20458;-55
2023/02/09 00:16:11;;;;;;;2.77;1.30;;;;;;;-4.18;92.90;102029.03;5038590;28;20458;-54
2023/02/09 00:18:38;;;;;;;4.10;1.23;;;;;;;-4.06;93.28;102034.94;5044121;28;20866;-55
2023/02/09 00:21:08;;;;;;;1.20;0.90;;;;;;;-4.15;93.27;102025.72;5031965;28;20956;-55
2023/02/09 00:23:37;;;;;;;2.63;2.53;;;;;;;-4.01;92.75;102033.50;5045346;28;20481;-55
2023/02/09 00:26:07;;;;;;;1.70;1.60;;;;;;;-3.95;93.23;102022.59;5042939;28;20458;-55
2023/02/09 00:28:33;;;;;;;1.00;1.00;;;;;;;-3.95;93.06;102020.00;5021163;28;20496;-55
2023/02/09 00:31:05;;;;;;;0.67;0.67;;;;;;;-4.15;92.27;102028.31;5043615;28;20458;-55
2023/02/09 00:33:32;;;;;;;0.30;0.30;;;;;;;-4.30;92.45;102030.91;5038437;28;20944;-55
2023/02/09 00:35:58;;;;;;;1.80;1.70;;;;;;;-4.43;93.00;102026.69;5039212;28;20451;-55
2023/02/09 00:38:25;;;;;;;0.30;0.20;;;;;;;-4.38;94.08;102032.16;5045713;28;20490;-55
2023/02/09 00:40:51;;;;;;;2.87;2.77;;;;;;;-4.49;94.36;102028.91;5048317;28;20450;-55
2023/02/09 00:43:17;;;;;;;3.17;2.97;;;;;;;-4.37;93.80;102028.75;5041682;28;20832;-55
2023/02/09 00:45:44;;;;;;;2.93;0.87;;;;;;;-4.42;93.45;102028.47;5042826;28;20470;-55
2023/02/09 00:48:10;;;;;;;1.53;0.40;;;;;;;-4.48;93.29;102035.91;5048173;28;20570;-55
2023/02/09 00:50:36;;;;;;;0.80;0.80;;;;;;;-4.57;93.45;102023.25;5048393;28;20450;-55
2023/02/09 00:53:03;;;;;;;3.90;1.17;;;;;;;-4.27;93.18;102029.38;5040910;28;20454;-56
2023/02/09 00:55:29;;;;;;;1.70;1.03;;;;;;;-4.49;93.40;102016.84;5047706;28;20935;-55
2023/02/09 00:57:56;;;;;;;1.00;1.00;;;;;;;-4.60;93.70;102019.59;5041438;28;20467;-55
2023/02/09 01:00:23;;;;;;;0.40;0.40;;;;;;;-4.50;93.85;102012.47;5042442;28;20452;-55
2023/02/09 01:02:49;;;;;;;0.37;0.37;;;;;;;-4.32;93.07;102017.84;5038590;28;20817;-55
2023/02/09 01:05:16;;;;;;;1.30;0.80;;;;;;;-4.62;92.70;102021.19;5048265;28;20450;-56
2023/02/09 01:07:42;;;;;;;1.20;1.17;;;;;;;-4.74;94.19;102016.16;5041501;28;20490;-55
2023/02/09 01:10:09;;;;;;;1.07;1.07;;;;;;;-4.69;94.53;102021.63;5042157;28;20448;-55
2023/02/09 01:12:38;;;;;;;1.50;1.40;;;;;;;-4.79;94.02;102009.81;5048198;28;20451;-55
2023/02/09 01:15:07;;;;;;;0.60;0.60;;;;;;;-4.78;94.44;102001.22;5047888;28;20447;-55
2023/02/09 01:17:33;;;;;;;1.70;1.70;;;;;;;-4.83;93.76;102002.63;5028782;28;20453;-56
2023/02/09 01:20:00;;;;;;;6.40;1.63;;;;;;;-4.91;94.43;102002.19;5041074;28;20440;-55
2023/02/09 01:22:26;;;;;;;0.63;0.63;;;;;;;-4.84;95.18;102000.84;5048169;28;20457;-55
2023/02/09 01:24:52;;;;;;;3.87;2.40;;;;;;;-4.80;94.44;101992.44;5040974;28;20454;-55
2023/02/09 01:27:19;;;;;;;8.60;2.13;;;;;;;-4.91;94.02;101993.50;5034285;28;20535;-55
2023/02/09 01:29:45;;;;;;;1.00;1.00;;;;;;;-4.96;93.86;101992.31;5047652;28;20528;-55
2023/02/09 01:32:12;;;;;;;1.70;0.53;;;;;;;-4.97;94.01;101983.63;5036239;28;20942;-55
2023/02/09 01:34:38;;;;;;;0.90;0.90;;;;;;;-4.90;93.73;101977.16;5047778;28;20538;-55
2023/02/09 01:37:05;;;;;;;4.40;1.73;;;;;;;-5.01;94.02;101965.22;5047272;28;20449;-55
2023/02/09 01:39:32;;;;;;;2.00;0.97;;;;;;;-5.07;94.36;101956.28;5034370;28;20467;-55
2023/02/09 01:41:58;;;;;;;0.30;0.30;;;;;;;-5.23;94.26;101956.13;5047655;28;20457;-55
2023/02/09 01:44:24;;;;;;;0.30;0.30;;;;;;;-5.08;94.59;101959.66;5023709;28;20466;-55
2023/02/09 01:46:51;;;;;;;1.03;0.77;;;;;;;-5.03;93.70;101956.47;5040917;28;20570;-55
2023/02/09 01:49:22;;;;;;;2.13;2.03;;;;;;;-4.86;93.60;101948.00;5046797;28;20475;-55
2023/02/09 01:51:56;;;;;;;1.00;1.00;;;;;;;-4.93;92.95;101948.44;5046902;28;20857;-55
2023/02/09 01:54:30;;;;;;;2.83;1.00;;;;;;;-5.01;93.43;101958.34;5042871;28;20446;-55
2023/02/09 01:57:11;;;;;;;2.87;2.67;;;;;;;-4.74;92.50;101959.09;5040676;28;20446;-55
2023/02/09 01:59:40;;;;;;;0.53;0.53;;;;;;;-4.80;91.99;101961.31;5024493;28;20530;-55
2023/02/09 02:02:08;;;;;;;0.63;0.63;;;;;;;-4.98;93.47;101966.28;5047677;28;20847;-55
2023/02/09 02:04:36;;;;;;;1.90;0.40;;;;;;;-4.97;93.55;101960.31;5046252;28;20454;-55
2023/02/09 02:07:51;;;;;;;0.87;0.87;;;;;;;-4.98;93.25;101949.84;5040037;28;20455;-55
2023/02/09 02:10:18;;;;;;;2.27;1.63;;;;;;;-5.07;93.66;101948.50;5038052;28;20994;-55
2023/02/09 02:12:44;;;;;;;0.97;0.97;;;;;;;-5.05;93.51;101947.69;5041545;28;20447;-55
2023/02/09 02:15:11;;;;;;;1.97;1.87;;;;;;;-5.09;94.12;101954.38;5047021;28;20444;-55
2023/02/09 02:17:59;;;;;;;1.10;0.67;;;;;;;-5.27;92.92;101950.66;5045985;28;20478;-55
2023/02/09 02:20:43;;;;;;;0.53;0.53;;;;;;;-5.25;93.31;101949.06;5024475;28;20948;-53
2023/02/09 02:23:34;;;;;;;2.40;1.07;;;;;;;-5.22;93.76;101955.31;5046886;28;20448;-53
2023/02/09 02:26:31;;;;;;;1.87;1.77;;;;;;;-5.27;94.02;101955.84;5046897;28;20451;-53
2023/02/09 02:29:19;;;;;;;3.07;2.50;;;;;;;-5.14;93.10;101960.97;5040236;28;20495;-53
2023/02/09 02:32:05;;;;;;;0.37;0.37;;;;;;;-5.14;93.08;101960.97;5039635;28;20443;-53
2023/02/09 02:34:41;;;;;;;2.43;2.03;;;;;;;-4.89;93.95;101951.31;5046632;28;20448;-53
2023/02/09 02:37:29;;;;;;;3.07;2.87;;;;;;;-5.06;93.11;101954.59;5046343;28;20948;-54
2023/02/09 02:40:17;;;;;;;1.27;1.17;;;;;;;-5.23;93.45;101948.34;5043804;28;20447;-53
2023/02/09 02:43:16;;;;;;;0.67;0.67;;;;;;;-5.23;93.82;101963.88;5027256;28;20458;-53
2023/02/09 02:45:49;;;;;;;2.20;0.40;;;;;;;-5.03;94.03;101951.28;5039447;28;20450;-53
2023/02/09 02:48:40;;;;;;;0.30;0.30;;;;;;;-5.31;94.09;101943.50;5040790;28;20495;-53
2023/02/09 02:51:16;;;;;;;0.20;0.20;;;;;;;-5.31;94.03;101939.22;5031809;28;20451;-53
2023/02/09 02:53:47;;;;;;;12.63;2.00;;;;;;;-5.20;95.50;101933.00;5039355;28;20935;-53
2023/02/09 02:56:18;;;;;;;4.27;3.97;;;;;;;-5.14;94.75;101933.38;5024110;28;20448;-53
2023/02/09 02:58:48;;;;;;;1.30;1.30;;;;;;;-5.22;96.12;101934.59;5046417;28;20460;-53
2023/02/09 03:01:20;;;;;;;2.10;0.67;;;;;;;-5.27;96.34;101938.59;5044979;28;20451;-53
2023/02/09 03:03:48;;;;;;;1.80;1.67;;;;;;;-5.13;97.25;101924.78;5039279;28;20473;-53
2023/02/09 03:06:16;;;;;;;0.90;0.63;;;;;;;-5.06;96.02;101920.88;5039617;28;20459;-53
2023/02/09 03:08:52;;;;;;;0.90;0.90;;;;;;;-4.86;94.48;101929.84;5022048;28;20490;-53
2023/02/09 03:11:21;;;;;;;1.23;1.13;;;;;;;-4.38;93.47;101938.75;5039117;28;20483;-53
2023/02/09 03:14:03;;;;;;;4.47;4.03;;;;;;;-4.67;93.09;101937.00;5043871;28;20455;-54
2023/02/09 03:17:05;;;;;;;3.93;3.63;;;;;;;-4.73;94.70;101936.66;5046318;28;20531;-53
2023/02/09 03:19:44;;;;;;;0.63;0.63;;;;;;;-4.68;93.40;101933.53;4962313;28;21042;-53
2023/02/09 03:22:15;;;;;;;3.30;1.50;;;;;;;-4.84;93.64;101931.72;5026070;28;20447;-53
2023/02/09 03:24:58;;;;;;;0.63;0.63;;;;;;;-4.79;93.44;101944.97;5039066;28;20453;-53
2023/02/09 03:27:32;;;;;;;0.60;0.60;;;;;;;-4.97;93.51;101939.56;5031060;28;20528;-54
2023/02/09 03:30:03;;;;;;;5.50;1.53;;;;;;;-5.07;92.96;101945.91;5040756;28;20442;-53
2023/02/09 03:32:30;;;;;;;2.30;2.20;;;;;;;-5.44;94.02;101936.66;5038932;28;20447;-53
2023/02/09 03:34:58;;;;;;;1.10;1.10;;;;;;;-5.26;94.28;101947.25;5043322;28;20449;-53
2023/02/09 03:37:24;;;;;;;8.47;4.03;;;;;;;-5.23;93.63;101945.75;5045781;28;20462;-53
2023/02/09 03:39:51;;;;;;;1.27;1.27;;;;;;;-5.16;93.31;101937.56;5041790;28;20446;-53
2023/02/09 03:42:18;;;;;;;0.73;0.73;;;;;;;-5.38;92.74;101931.84;5038793;28;20451;-53
2023/02/09 03:44:44;;;;;;;0.87;0.87;;;;;;;-5.64;93.54;101939.69;5043008;28;20455;-53
2023/02/09 03:47:11;;;;;;;0.60;0.60;;;;;;;-5.50;93.87;101938.84;5045476;28;20501;-53
2023/02/09 03:49:39;;;;;;;0.97;0.97;;;;;;;-5.33;94.56;101951.19;5041829;28;20517;-53
2023/02/09 03:52:09;;;;;;;0.30;0.30;;;;;;;-4.96;93.47;101951.72;5038979;28;20828;-53
2023/02/09 03:54:36;;;;;;;0.20;0.10;;;;;;;-5.36;93.59;101953.56;5041958;28;20458;-53
2023/02/09 03:57:03;;;;;;;3.30;2.10;;;;;;;-5.22;93.09;101944.94;5045609;28;20455;-53
2023/02/09 03:59:34;;;;;;;1.17;0.57;;;;;;;-5.41;92.99;101945.53;5042689;28;20474;-55
2023/02/09 04:02:01;;;;;;;0.87;0.87;;;;;;;-5.74;93.22;101946.91;5031068;28;20515;-54
2023/02/09 04:04:27;;;;;;;1.47;1.47;;;;;;;-5.65;94.14;101954.34;5023852;28;20485;-53
2023/02/09 04:06:55;;;;;;;0.30;0.20;;;;;;;-5.68;92.73;101947.28;5045343;28;20454;-53
2023/02/09 04:09:21;;;;;;;0.60;0.60;;;;;;;-5.81;93.08;101949.88;5043304;28;20490;-53
2023/02/09 04:11:48;;;;;;;0.93;0.93;;;;;;;-5.70;94.18;101942.81;5038565;28;20446;-53
2023/02/09 04:14:15;;;;;;;4.37;4.00;;;;;;;-5.71;94.98;101938.44;5042501;28;20447;-53
2023/02/09 04:16:42;;;;;;;4.70;2.00;;;;;;;-5.83;93.58;101938.53;5049224;28;21006;-53
2023/02/09 04:19:08;;;;;;;0.27;0.27;;;;;;;-5.88;95.03;101934.78;5047890;28;20467;-53
2023/02/09 04:21:36;;;;;;;0.70;0.70;;;;;;;-5.78;94.64;101931.94;5029257;28;20454;-53
2023/02/09 04:24:04;;;;;;;0.67;0.67;;;;;;;-5.49;94.03;101943.25;5042503;28;20455;-55
2023/02/09 04:26:31;;;;;;;1.13;1.03;;;;;;;-5.69;92.78;101935.13;5029620;28;20457;-53
2023/02/09 04:28:57;;;;;;;0.27;0.27;;;;;;;-5.77;93.75;101935.44;5049190;28;20501;-53
2023/02/09 04:31:24;;;;;;;0.30;0.30;;;;;;;-5.83;94.79;101935.06;5043047;28;20858;-53
2023/02/09 04:33:50;;;;;;;0.40;0.40;;;;;;;-5.70;94.35;101943.69;5032188;28;20451;-53
2023/02/09 04:36:17;;;;;;;4.67;2.00;;;;;;;-5.64;94.16;101939.69;5030418;28;20454;-53
2023/02/09 04:38:43;;;;;;;0.23;0.23;;;;;;;-5.79;93.14;101931.84;5049090;28;20462;-53
2023/02/09 04:41:10;;;;;;;0.67;0.67;;;;;;;-5.86;93.15;101946.13;5043807;28;20500;-53
2023/02/09 04:43:36;;;;;;;0.60;0.60;;;;;;;-5.97;93.76;101947.16;5042236;28;20510;-53
2023/02/09 04:46:03;;;;;;;0.73;0.73;;;;;;;-5.90;93.27;101940.66;5047878;28;20451;-53
2023/02/09 04:48:30;;;;;;;0.80;0.80;;;;;;;-5.86;93.05;101946.13;5048633;28;20504;-53
2023/02/09 04:50:57;;;;;;;2.67;2.30;;;;;;;-5.87;92.97;101956.38;5043704;28;20453;-54
2023/02/09 04:53:24;;;;;;;0.63;0.63;;;;;;;-5.92;92.89;101945.75;5041659;28;20447;-53
2023/02/09 04:55:51;;;;;;;0.60;0.60;;;;;;;-6.09;92.58;101938.59;5047266;28;20452;-53
2023/02/09 05:01:04;;;;;;;6.23;1.77;;;;;;;-6.02;93.74;101941.69;5046481;28;20458;-53
2023/02/09 05:03:31;;;;;;;0.93;0.93;;;;;;;-5.95;94.48;101939.47;5041614;28;20447;-53
2023/02/09 05:06:00;;;;;;;2.87;0.77;;;;;;;-5.95;94.80;101939.47;5044296;28;20479;-55
2023/02/09 05:08:27;;;;;;;1.40;1.30;;;;;;;-5.44;94.08;101941.84;5048350;28;20561;-53
2023/02/09 05:10:54;;;;;;;3.23;2.93;;;;;;;-5.10;91.79;101948.28;5047165;28;20814;-53
2023/02/09 05:13:21;;;;;;;6.13;2.20;;;;;;;-5.71;91.87;101952.28;5041572;28;20451;-53
2023/02/09 05:15:49;;;;;;;0.50;0.50;;;;;;;-5.84;92.68;101960.03;5043346;28;20447;-53
2023/02/09 05:18:15;;;;;;;0.30;0.30;;;;;;;-5.86;92.79;101960.75;5047951;28;20479;-53
2023/02/09 05:20:42;;;;;;;0.93;0.93;;;;;;;-5.87;92.82;101962.44;5034925;28;20452;-54
2023/02/09 05:23:10;;;;;;;18.93;1.47;;;;;;;-5.82;91.80;101965.31;5048331;28;20462;-53
2023/02/09 05:25:36;;;;;;;1.33;1.33;;;;;;;-5.86;92.63;101965.94;5028940;28;20473;-53
2023/02/09 05:28:03;;;;;;;0.67;0.67;;;;;;;-6.00;93.17;101973.72;5028396;28;20519;-54
2023/02/09 05:30:30;;;;;;;2.90;1.03;;;;;;;-5.97;92.73;101968.75;5048537;28;20825;-53
2023/02/09 05:32:57;;;;;;;0.40;0.40;;;;;;;-4.92;91.70;101958.00;5037633;28;20483;-54
2023/02/09 05:35:24;;;;;;;0.60;0.60;;;;;;;-5.17;90.74;101963.38;5047675;28;20455;-54
2023/02/09 05:37:50;;;;;;;1.13;0.40;;;;;;;-5.55;91.19;101959.31;5034951;28;20525;-53
2023/02/09 05:40:17;;;;;;;2.67;1.20;;;;;;;-5.78;91.66;101970.78;5048111;28;20455;-54
2023/02/09 05:42:43;;;;;;;12.03;1.70;;;;;;;-5.94;92.03;101964.56;5042098;28;20446;-54
2023/02/09 05:45:10;;;;;;;1.60;1.07;;;;;;;-6.05;92.11;101957.00;5041111;28;20451;-54
2023/02/09 05:47:36;;;;;;;3.80;1.03;;;;;;;-6.11;92.81;101958.31;5046968;28;20482;-53
2023/02/09 05:50:03;;;;;;;5.50;1.90;;;;;;;-5.97;92.51;101957.50;5047878;28;20486;-54
2023/02/09 05:52:29;;;;;;;0.87;0.87;;;;;;;-6.01;92.18;101960.69;5042326;28;20451;-54
2023/02/09 05:54:56;;;;;;;1.97;1.37;;;;;;;-6.13;92.96;101957.31;5041292;28;20454;-54
2023/02/09 05:57:22;;;;;;;1.57;0.40;;;;;;;-6.30;92.48;101957.09;5029213;28;20447;-54
2023/02/09 05:59:48;;;;;;;0.33;0.33;;;;;;;-6.14;93.19;101950.34;5047853;28;20953;-54
2023/02/09 06:02:15;;;;;;;0.40;0.40;;;;;;;-6.07;92.89;101952.53;5030971;28;20448;-54
2023/02/09 06:04:41;;;;;;;3.10;2.90;;;;;;;-6.27;92.56;101943.47;5030930;28;20451;-54
2023/02/09 06:07:08;;;;;;;3.23;2.87;;;;;;;-6.34;93.15;101949.91;5046370;28;20550;-54
2023/02/09 06:09:37;;;;;;;0.63;0.63;;;;;;;-6.27;92.65;101952.13;5047549;28;20495;-54
2023/02/09 06:12:03;;;;;;;3.60;1.87;;;;;;;-6.38;92.91;101949.63;5043060;28;20455;-53
2023/02/09 06:14:30;;;;;;;2.90;0.80;;;;;;;-6.40;93.17;101952.13;5040838;28;20870;-54
2023/02/09 06:16:56;;;;;;;3.03;2.43;;;;;;;-6.28;93.05;101963.28;5044904;28;20447;-54
2023/02/09 06:19:23;;;;;;;1.80;0.60;;;;;;;-6.06;92.15;101964.66;5047173;28;20505;-54
2023/02/09 06:21:49;;;;;;;0.47;0.47;;;;;;;-6.18;92.38;101956.09;5042680;28;20451;-54
2023/02/09 06:24:16;;;;;;;0.40;0.40;;;;;;;-6.20;92.56;101955.09;5040854;28;20455;-54
2023/02/09 06:26:42;;;;;;;2.60;1.60;;;;;;;-6.21;92.46;101966.25;5043687;28;20471;-53
2023/02/09 06:29:09;;;;;;;1.23;1.13;;;;;;;-5.94;92.15;101975.81;5031032;28;20487;-54
2023/02/09 06:31:36;;;;;;;3.50;1.60;;;;;;;-6.16;92.18;101975.22;5045200;28;20936;-54
2023/02/09 06:34:04;;;;;;;1.13;0.90;;;;;;;-6.40;92.06;101977.97;5047093;28;20450;-54
2023/02/09 06:36:31;;;;;;;3.13;2.10;;;;;;;-6.23;92.82;101984.25;5042768;28;20451;-54
2023/02/09 06:38:57;;;;;;;0.30;0.30;;;;;;;-5.84;91.41;101980.75;5040696;28;20464;-54
2023/02/09 06:41:24;;;;;;;7.00;1.37;;;;;;;-6.19;91.95;101986.25;5044092;28;20673;-54
2023/02/09 06:43:50;;;;;;;2.23;2.13;;;;;;;-6.27;92.21;101992.63;5046999;28;20884;-54
2023/02/09 06:46:17;;;;;;;1.80;1.13;;;;;;;-6.32;92.67;101994.88;5043143;28;20450;-54
2023/02/09 06:48:43;;;;;;;0.30;0.30;;;;;;;-6.27;92.53;101996.09;5039832;28;20553;-54
2023/02/09 06:51:12;;;;;;;9.20;1.47;;;;;;;-6.32;92.74;101989.72;5043913;28;20827;-54
2023/02/09 06:53:41;;;;;;;5.03;1.50;;;;;;;-6.43;92.00;102001.06;5046800;28;21018;-54
2023/02/09 06:56:09;;;;;;;5.57;0.83;;;;;;;-6.40;92.35;102003.84;5043715;28;20451;-54
2023/02/09 06:58:36;;;;;;;1.07;1.07;;;;;;;-6.46;92.67;102010.28;5039715;28;20471;-54
2023/02/09 07:01:08;;;;;;;0.40;0.40;;;;;;;-6.35;92.58;102017.06;5043161;28;20479;-54
2023/02/09 07:03:35;;;;;;;0.80;0.80;;;;;;;-6.22;92.23;102011.03;5022013;28;20452;-54
2023/02/09 07:06:07;;;;;;;0.83;0.83;;;;;;;-6.37;92.23;102004.03;5044774;28;20796;-54
2023/02/09 07:08:34;;;;;;;0.30;0.30;;;;;;;-6.27;92.30;102013.31;5039501;28;20490;-54
2023/02/09 07:11:06;;;;;;;6.70;1.50;;;;;;;-6.12;91.49;102022.09;5022860;28;20497;-54
2023/02/09 07:13:33;;;;;;;0.30;0.30;;;;;;;-6.15;91.58;102006.38;5026632;28;20459;-55
2023/02/09 07:16:00;;;;;;;2.33;2.20;;;;;;;-6.19;92.41;101998.28;5039703;28;20454;-55
2023/02/09 07:18:27;;;;;;;4.23;3.07;;;;;;;-6.20;92.24;102005.16;5026679;28;20470;-54
2023/02/09 07:20:55;;;;;;;1.60;0.90;;;;;;;-6.20;92.42;102004.25;5026245;28;20831;-54
2023/02/09 07:23:23;;;;;;;0.27;0.27;;;;;;;-6.05;92.86;102008.75;5045315;28;20451;-54
2023/02/09 07:25:50;;;;;;;2.30;2.20;;;;;;;-6.07;93.00;101996.50;5045660;28;20873;-54
2023/02/09 07:28:20;;;;;;;2.20;2.17;;;;;;;-6.01;92.38;102003.00;5025708;28;20480;-54
2023/02/09 07:30:48;;;;;;;2.97;0.70;;;;;;;-6.02;93.10;102006.38;5046174;28;20526;-54
2023/02/09 07:33:15;;;;;;;0.43;0.43;;;;;;;-5.83;94.56;102010.13;5041282;28;20486;-54
2023/02/09 07:35:42;;;;;;;0.20;0.20;;;;;;;-5.70;95.02;102007.53;5039298;28;20448;-54
2023/02/09 07:38:08;;;;;;;0.50;0.50;;;;;;;-5.50;92.93;102006.22;5043763;28;20467;-54
2023/02/09 07:40:37;;;;;;;39.20;1.87;;;;;;;-5.50;93.19;102013.97;5045560;28;20451;-54
2023/02/09 07:43:04;;;;;;;1.00;1.00;;;;;;;-5.37;94.61;102016.53;5041882;28;20534;-55
2023/02/09 07:45:32;;;;;;;0.80;0.80;;;;;;;-5.22;94.56;102008.84;5021360;28;20871;-54
2023/02/09 07:47:58;;;;;;;5.10;2.37;;;;;;;-5.25;95.08;102012.13;5042989;28;20892;-54
2023/02/09 07:50:25;;;;;;;11.60;4.20;;;;;;;-5.14;95.02;102007.63;5049755;28;20507;-54
2023/02/09 07:52:53;;;;;;;4.07;2.83;;;;;;;-5.06;94.86;102003.84;5046355;28;20470;-54
2023/02/09 07:55:19;;;;;;;0.20;0.20;;;;;;;-4.89;94.34;102008.34;5043253;28;20446;-54
2023/02/09 07:57:46;;;;;;;4.27;2.50;;;;;;;-4.85;94.79;102002.53;5046765;28;20471;-55
2023/02/09 08:00:13;;;;;;;0.40;0.40;;;;;;;-4.69;95.15;102006.94;5049810;28;20470;-54
2023/02/09 08:02:40;;;;;;;0.63;0.63;;;;;;;-4.47;94.47;102017.81;5028195;28;20486;-54
2023/02/09 08:05:16;;;;;;;1.20;1.00;;;;;;;-4.51;93.81;102013.25;5037498;28;20457;-55
2023/02/09 08:07:42;;;;;;;0.50;0.50;;;;;;;-4.53;92.66;102024.31;5045144;28;20494;-54
2023/02/09 08:10:09;;;;;;;2.00;2.00;;;;;;;-4.41;93.50;102013.78;5050182;28;20491;-54
2023/02/09 08:15:21;;;;;;;4.87;3.03;;;;;;;-4.20;93.15;102015.06;5031985;28;20443;-54
2023/02/09 08:17:50;;;;;;;3.70;3.57;;;;;;;-4.15;92.62;102029.19;5042741;28;20495;-54
2023/02/09 08:20:20;;;;;;;3.20;2.53;;;;;;;-4.13;93.58;102022.38;5063455;22;20832;-52
2023/02/09 08:22:51;;;;;;;2.63;1.33;;;;;;;-3.89;94.23;102025.53;5026308;28;20777;-52
2023/02/09 08:25:21;;;;;;;0.80;0.80;;;;;;;-3.80;93.42;102026.06;5035918;28;20454;-53
2023/02/09 08:27:48;;;;;;;1.13;0.70;;;;;;;-3.75;93.03;102029.81;5032501;28;20888;-53
2023/02/09 08:30:16;;;;;;;1.10;1.10;;;;;;;-3.67;93.53;102038.06;5025929;28;20487;-53
2023/02/09 08:32:42;;;;;;;0.70;0.70;;;;;;;-3.54;93.62;102031.84;5028114;28;20463;-53
2023/02/09 08:35:09;;;;;;;1.27;1.13;;;;;;;-3.46;93.21;102025.34;5024991;28;20448;-53
2023/02/09 08:37:36;;;;;;;3.43;3.33;;;;;;;-3.26;91.78;102019.56;5029189;28;20452;-54
2023/02/09 08:40:03;;;;;;;2.13;2.03;;;;;;;-3.28;92.83;102027.28;5027079;28;20563;-54
2023/02/09 08:42:29;;;;;;;2.93;1.80;;;;;;;-3.22;92.56;102021.53;5022213;28;20522;-53
2023/02/09 08:44:55;;;;;;;4.00;3.13;;;;;;;-3.24;93.14;102024.84;5023754;28;20453;-54
2023/02/09 08:47:22;;;;;;;1.33;1.07;;;;;;;-3.45;94.29;102021.94;5028953;28;20456;-54
2023/02/09 08:49:49;;;;;;;1.40;0.70;;;;;;;-3.37;94.92;102021.56;5027613;28;20977;-54
2023/02/09 08:52:17;;;;;;;3.43;3.27;;;;;;;-3.52;95.23;102023.31;5022356;28;20867;-54
2023/02/09 08:54:43;;;;;;;1.53;1.53;;;;;;;-3.38;95.19;102016.28;5023498;28;20816;-53
2023/02/09 08:57:10;;;;;;;2.23;2.13;;;;;;;-3.33;95.95;102017.44;5028556;28;20453;-54
2023/02/09 08:59:36;;;;;;;3.40;2.13;;;;;;;-3.11;96.11;102015.19;5026970;28;20464;-54
2023/02/09 09:02:03;;;;;;;3.60;3.30;;;;;;;-2.86;95.76;102000.94;5021791;28;20505;-54
2023/02/09 09:04:29;;;;;;;1.33;1.17;;;;;;;-2.66;94.25;102001.97;5034948;28;20478;-55
2023/02/09 09:06:55;;;;;;;4.03;1.17;;;;;;;-2.65;93.96;101998.53;5022035;28;20478;-54
2023/02/09 09:09:22;;;;;;;0.70;0.70;;;;;;;-2.57;93.98;102000.75;5022498;28;20898;-53
2023/02/09 09:11:48;;;;;;;1.70;1.60;;;;;;;-2.38;93.75;101997.34;5028226;28;20869;-53
2023/02/09 09:14:15;;;;;;;5.77;4.30;;;;;;;-2.27;93.13;101996.19;5027427;28;20455;-53
2023/02/09 09:16:41;;;;;;;1.17;1.10;;;;;;;-2.10;93.03;101992.72;5021670;28;20531;-53
2023/02/09 09:19:07;;;;;;;5.70;2.77;;;;;;;-2.10;92.72;101999.66;5022204;28;20472;-53
2023/02/09 09:21:34;;;;;;;0.97;0.97;;;;;;;-1.99;92.31;102008.00;5034170;28;20448;-53
2023/02/09 09:24:00;;;;;;;0.87;0.87;;;;;;;-2.13;92.51;102002.09;5022328;28;20459;-53
2023/02/09 09:26:27;;;;;;;1.90;1.80;;;;;;;-1.97;91.29;102008.97;5027938;28;20452;-53
2023/02/09 09:28:53;;;;;;;2.97;1.70;;;;;;;-1.63;91.35;102001.09;5034249;28;20468;-53
2023/02/09 09:31:20;;;;;;;2.37;0.50;;;;;;;-1.70;91.74;102012.94;5021356;28;20495;-53
2023/02/09 09:33:46;;;;;;;2.47;1.97;;;;;;;-1.60;90.70;102009.06;5034501;28;20451;-53
2023/02/09 09:36:13;;;;;;;4.30;2.43;;;;;;;-1.57;90.25;102017.94;5021101;28;20454;-53
2023/02/09 09:38:40;;;;;;;1.03;0.93;;;;;;;-1.45;90.58;102015.00;5021308;28;20825;-53
2023/02/09 09:41:33;;;;;;;1.33;1.10;;;;;;;-1.23;89.71;102011.72;5027541;28;20483;-53
2023/02/09 09:44:02;;;;;;;1.80;0.40;;;;;;;-0.92;89.44;102014.91;5028070;28;20536;-53
2023/02/09 09:46:35;;;;;;;2.67;1.60;;;;;;;-0.60;88.26;102005.91;5025514;28;20822;-53
2023/02/09 09:49:02;;;;;;;3.30;3.13;;;;;;;-1.02;89.02;102010.09;5021120;28;20480;-53
2023/02/09 09:51:45;;;;;;;3.07;2.53;;;;;;;-0.83;89.19;101993.53;5021969;28;20951;-53
2023/02/09 09:54:19;;;;;;;4.27;4.17;;;;;;;-0.86;89.07;101995.13;5022550;28;20497;-53
2023/02/09 09:56:46;;;;;;;9.47;2.87;;;;;;;-0.81;89.53;101994.53;5020562;28;20506;-53
2023/02/09 09:59:22;;;;;;;0.83;0.83;;;;;;;-0.74;89.25;102000.91;5025065;28;20465;-53
2023/02/09 10:01:51;;;;;;;7.33;3.30;;;;;;;-0.70;89.38;102008.94;5028477;28;20507;-53
2023/02/09 10:04:19;;;;;;;0.97;0.97;;;;;;;-0.49;88.27;102015.94;5033805;28;20958;-53
2023/02/09 10:06:55;;;;;;;0.70;0.67;;;;;;;-0.48;88.25;102016.00;5020676;28;20506;-53
2023/02/09 10:09:54;;;;;;;5.10;2.97;;;;;;;-0.34;87.88;102016.59;5021839;28;20492;-53
2023/02/09 10:12:34;;;;;;;3.30;2.07;;;;;;;0.01;86.99;102018.13;5016103;28;20451;-53
2023/02/09 10:15:27;;;;;;;9.10;2.30;;;;;;;-0.14;87.13;102020.94;5020441;28;20920;-53
2023/02/09 10:17:58;;;;;;;1.47;1.17;;;;;;;0.01;87.27;102033.81;5020425;28;20494;-53
2023/02/09 10:20:46;;;;;;;1.37;1.27;;;;;;;0.32;84.87;102040.31;5043367;28;20466;-53
2023/02/09 10:23:38;;;;;;;3.20;1.70;;;;;;;0.26;84.79;102035.69;5027477;28;20951;-53
2023/02/09 10:26:07;;;;;;;7.47;3.53;;;;;;;0.14;84.00;102030.00;5019750;28;20448;-53
2023/02/09 10:28:43;;;;;;;2.83;2.07;;;;;;;0.09;85.12;102031.50;5030454;28;20471;-53
2023/02/09 10:31:17;;;;;;;2.83;2.63;;;;;;;0.36;85.81;102029.13;5019821;28;20549;-53
2023/02/09 10:33:48;;;;;;;3.67;2.17;;;;;;;0.47;85.57;102020.91;5033274;28;20443;-53
2023/02/09 10:36:25;;;;;;;3.83;3.63;;;;;;;-0.02;86.35;102016.25;5027032;28;20448;-53
2023/02/09 10:39:21;;;;;;;10.80;5.23;;;;;;;0.03;86.33;102011.25;5026561;28;20470;-53
2023/02/09 10:41:50;;;;;;;1.43;1.43;;;;;;;0.15;84.99;102016.09;5018904;28;20490;-53
2023/02/09 10:44:26;;;;;;;2.87;2.67;;;;;;;0.36;83.00;102011.72;5020530;28;20456;-53
2023/02/09 10:47:29;;;;;;;2.77;1.03;;;;;;;0.29;84.67;102007.09;5020039;28;20452;-53
2023/02/09 10:50:11;;;;;;;0.70;0.70;;;;;;;0.47;84.28;102010.44;4960087;28;20502;-53
2023/02/09 10:52:42;;;;;;;1.37;0.97;;;;;;;0.69;82.71;102011.28;5016098;28;20459;-53
2023/02/09 10:55:20;;;;;;;1.80;1.70;;;;;;;0.83;82.13;102004.88;5019908;28;20851;-53
2023/02/09 10:57:47;;;;;;;2.93;1.77;;;;;;;0.78;80.97;102004.66;5023429;28;20536;-54
2023/02/09 11:00:13;;;;;;;1.37;1.27;;;;;;;0.81;81.25;102010.03;5026536;28;20482;-54
2023/02/09 11:02:49;;;;;;;5.40;3.10;;;;;;;1.15;81.27;102011.31;5023340;28;20768;-53
2023/02/09 11:05:18;;;;;;;2.90;2.70;;;;;;;1.36;81.10;102006.84;5028759;28;20444;-53
2023/02/09 11:07:47;;;;;;;4.77;3.57;;;;;;;1.28;80.80;102015.28;5024996;28;21022;-53
2023/02/09 11:10:14;;;;;;;10.00;3.97;;;;;;;1.63;79.48;101996.47;5019209;28;20488;-53
2023/02/09 11:12:42;;;;;;;1.80;1.70;;;;;;;1.70;79.22;102001.09;5020521;28;20452;-53
2023/02/09 11:15:13;;;;;;;3.23;2.57;;;;;;;1.91;77.21;102006.19;5026059;28;20456;-53
2023/02/09 11:17:47;;;;;;;7.53;1.83;;;;;;;1.70;78.24;102003.72;5026071;28;20971;-53
2023/02/09 11:20:19;;;;;;;1.67;1.07;;;;;;;1.63;79.29;101998.19;5040954;28;20486;-54
2023/02/09 11:22:54;;;;;;;6.53;2.77;;;;;;;1.77;79.68;101989.09;5034596;28;20479;-53
2023/02/09 11:25:27;;;;;;;2.07;1.67;;;;;;;2.08;77.62;101977.94;5022810;28;20454;-53
2023/02/09 11:28:23;;;;;;;3.00;1.10;;;;;;;1.81;78.27;101971.75;5026388;28;20451;-53
2023/02/09 11:31:24;;;;;;;1.77;1.67;;;;;;;1.83;79.32;101964.84;5019393;28;20663;-53
2023/02/09 11:34:29;;;;;;;0.93;0.90;;;;;;;1.97;78.83;101964.47;5032225;28;20443;-53
2023/02/09 11:37:26;;;;;;;5.63;1.80;;;;;;;1.92;79.13;101966.03;5024793;28;20991;-53
2023/02/09 11:39:56;;;;;;;2.10;1.63;;;;;;;2.46;77.81;101954.63;5022887;28;20464;-53
2023/02/09 11:42:43;;;;;;;2.90;2.57;;;;;;;2.17;76.83;101958.97;5025857;28;20456;-53
2023/02/09 11:45:21;;;;;;;2.10;2.00;;;;;;;2.10;77.02;101954.38;5025529;28;20454;-53
2023/02/09 11:48:06;;;;;;;12.53;2.00;;;;;;;2.35;75.95;101960.47;5020407;28;20809;-54